createdAt,value
2018-07-20T00:00:33.814Z,3.70
2018-07-20T00:01:33.772Z,3.60
2018-07-20T00:02:33.737Z,6.80
2018-07-20T00:03:33.691Z,4.20
2018-07-20T00:04:33.650Z,3.10
2018-07-20T00:05:33.613Z,4.40
2018-07-20T00:06:33.567Z,3.40
2018-07-20T00:07:33.523Z,3.80
2018-07-20T00:08:33.483Z,4.50
2018-07-20T00:09:33.447Z,3.50
2018-07-20T00:10:33.407Z,4.00
2018-07-20T00:11:33.364Z,3.60
2018-07-20T00:12:33.317Z,4.30
2018-07-20T00:13:33.277Z,3.80
2018-07-20T00:14:33.234Z,4.20
2018-07-20T00:15:33.192Z,4.30
2018-07-20T00:16:33.659Z,5.20
2018-07-20T00:17:33.113Z,3.40
2018-07-20T00:18:33.331Z,3.50
2018-07-20T00:19:33.029Z,3.60
2018-07-20T00:20:32.995Z,4.50
2018-07-20T00:21:32.947Z,3.70
2018-07-20T00:22:32.904Z,3.80
2018-07-20T00:23:32.920Z,3.80
2018-07-20T00:24:32.820Z,3.40
2018-07-20T00:25:32.785Z,4.80
2018-07-20T00:26:32.736Z,3.90
2018-07-20T00:27:32.696Z,5.30
2018-07-20T00:28:32.654Z,3.80
2018-07-20T00:29:32.614Z,5.60
2018-07-20T00:30:32.578Z,4.60
2018-07-20T00:31:32.530Z,4.20
2018-07-20T00:32:32.488Z,3.80
2018-07-20T00:33:32.446Z,3.90
2018-07-20T00:34:32.410Z,3.50
2018-07-20T00:35:32.368Z,5.00
2018-07-20T00:36:32.321Z,6.70
2018-07-20T00:37:32.278Z,4.60
2018-07-20T00:38:32.237Z,4.40
2018-07-20T00:39:32.198Z,4.10
2018-07-20T00:40:32.155Z,4.30
2018-07-20T00:41:32.119Z,6.40
2018-07-20T00:42:32.078Z,4.00
2018-07-20T00:43:32.030Z,3.80
2018-07-20T00:44:32.001Z,3.70
2018-07-20T00:45:31.952Z,4.60
2018-07-20T00:46:31.907Z,4.00
2018-07-20T00:47:31.863Z,4.10
2018-07-20T00:48:31.826Z,4.70
2018-07-20T00:49:31.778Z,4.00
2018-07-20T00:50:31.744Z,4.20
2018-07-20T00:51:31.695Z,4.60
2018-07-20T00:52:31.661Z,4.70
2018-07-20T00:53:31.614Z,4.60
2018-07-20T00:54:31.569Z,4.30
2018-07-20T00:55:31.536Z,3.70
2018-07-20T00:56:31.487Z,4.00
2018-07-20T00:57:31.444Z,4.20
2018-07-20T00:58:31.406Z,4.60
2018-07-20T00:59:31.367Z,5.20
2018-07-20T01:00:31.326Z,4.10
2018-07-20T01:01:31.276Z,4.10
2018-07-20T01:02:31.240Z,3.90
2018-07-20T01:03:31.200Z,4.10
2018-07-20T01:04:31.157Z,3.70
2018-07-20T01:05:31.170Z,5.20
2018-07-20T01:06:31.077Z,4.10
2018-07-20T01:07:31.028Z,4.40
2018-07-20T01:08:30.985Z,6.40
2018-07-20T01:09:30.950Z,4.20
2018-07-20T01:10:30.900Z,3.60
2018-07-20T01:11:30.866Z,5.20
2018-07-20T01:12:30.823Z,5.10
2018-07-20T01:13:30.776Z,4.90
2018-07-20T01:14:30.733Z,4.70
2018-07-20T01:15:30.691Z,4.10
2018-07-20T01:16:30.655Z,4.90
2018-07-20T01:17:30.610Z,4.30
2018-07-20T01:18:30.566Z,4.20
2018-07-20T01:19:30.531Z,3.90
2018-07-20T01:20:30.480Z,4.80
2018-07-20T01:21:30.437Z,4.20
2018-07-20T01:22:30.401Z,4.50
2018-07-20T01:23:30.353Z,4.40
2018-07-20T01:24:30.315Z,5.00
2018-07-20T01:25:30.275Z,6.70
2018-07-20T01:26:30.237Z,4.70
2018-07-20T01:27:30.191Z,5.60
2018-07-20T01:28:30.146Z,4.10
2018-07-20T01:29:30.107Z,4.60
2018-07-20T01:30:30.067Z,5.80
2018-07-20T01:31:30.026Z,4.60
2018-07-20T01:32:29.976Z,4.30
2018-07-20T01:33:29.942Z,4.10
2018-07-20T01:34:29.892Z,5.10
2018-07-20T01:35:29.851Z,4.70
2018-07-20T01:36:29.809Z,4.70
2018-07-20T01:37:29.766Z,4.30
2018-07-20T01:38:29.724Z,5.60
2018-07-20T01:39:29.682Z,5.00
2018-07-20T01:40:29.640Z,4.70
2018-07-20T01:41:29.603Z,4.80
2018-07-20T01:42:29.558Z,3.90
2018-07-20T01:43:29.519Z,4.50
2018-07-20T01:44:29.473Z,3.80
2018-07-20T01:45:29.431Z,4.30
2018-07-20T01:46:29.392Z,4.00
2018-07-20T01:47:29.344Z,4.30
2018-07-20T01:48:29.310Z,4.50
2018-07-20T01:49:29.263Z,4.30
2018-07-20T01:50:29.223Z,4.40
2018-07-20T01:51:29.178Z,6.50
2018-07-20T01:52:29.136Z,4.20
2018-07-20T01:53:29.093Z,4.40
2018-07-20T01:54:29.052Z,4.50
2018-07-20T01:55:29.008Z,4.00
2018-07-20T01:56:28.970Z,4.90
2018-07-20T01:57:28.925Z,5.30
2018-07-20T01:58:28.882Z,4.50
2018-07-20T01:59:28.840Z,6.00
2018-07-20T02:00:28.798Z,4.20
2018-07-20T02:01:28.760Z,4.60
2018-07-20T02:02:28.714Z,4.40
2018-07-20T02:03:28.674Z,4.50
2018-07-20T02:04:28.629Z,5.70
2018-07-20T02:05:28.586Z,4.20
2018-07-20T02:06:28.555Z,4.20
2018-07-20T02:07:28.504Z,4.80
2018-07-20T02:08:28.467Z,4.70
2018-07-20T02:09:28.419Z,4.60
2018-07-20T02:10:28.386Z,5.00
2018-07-20T02:11:28.337Z,4.80
2018-07-20T02:12:28.291Z,4.70
2018-07-20T02:13:28.251Z,4.60
2018-07-20T02:14:28.208Z,5.20
2018-07-20T02:15:28.166Z,5.00
2018-07-20T02:16:28.126Z,5.80
2018-07-20T02:17:28.081Z,5.00
2018-07-20T02:18:28.039Z,4.60
2018-07-20T02:19:27.997Z,4.40
2018-07-20T02:20:27.955Z,4.60
2018-07-20T02:21:27.939Z,4.60
2018-07-20T02:22:27.870Z,5.70
2018-07-20T02:23:27.829Z,5.40
2018-07-20T02:24:27.786Z,5.30
2018-07-20T02:25:27.749Z,4.90
2018-07-20T02:26:27.702Z,5.30
2018-07-20T02:27:27.660Z,5.50
2018-07-20T02:28:27.619Z,4.80
2018-07-20T02:29:27.621Z,5.70
2018-07-20T02:30:27.537Z,4.60
2018-07-20T02:31:27.497Z,5.90
2018-07-20T02:32:27.448Z,4.90
2018-07-20T02:33:27.405Z,5.60
2018-07-20T02:34:27.364Z,6.00
2018-07-20T02:35:27.327Z,6.40
2018-07-20T02:36:27.280Z,4.70
2018-07-20T02:37:27.237Z,4.70
2018-07-20T02:38:27.308Z,4.80
2018-07-20T02:39:27.156Z,4.70
2018-07-20T02:40:27.118Z,4.70
2018-07-20T02:41:27.070Z,5.30
2018-07-20T02:42:27.034Z,8.90
2018-07-20T02:43:26.983Z,5.80
2018-07-20T02:44:26.943Z,5.30
2018-07-20T02:45:26.901Z,8.50
2018-07-20T02:46:26.861Z,6.20
2018-07-20T02:47:26.823Z,5.10
2018-07-20T02:48:26.774Z,7.60
2018-07-20T02:49:26.731Z,6.20
2018-07-20T02:50:26.697Z,5.20
2018-07-20T02:51:26.648Z,6.20
2018-07-20T02:52:26.605Z,6.70
2018-07-20T02:53:26.561Z,5.70
2018-07-20T02:54:26.526Z,7.50
2018-07-20T02:55:26.481Z,5.00
2018-07-20T02:56:26.436Z,5.40
2018-07-20T02:57:26.393Z,5.10
2018-07-20T02:58:26.355Z,5.00
2018-07-20T02:59:26.311Z,6.20
2018-07-20T03:00:26.269Z,5.20
2018-07-20T03:01:26.231Z,5.20
2018-07-20T03:02:26.192Z,5.30
2018-07-20T03:03:26.144Z,8.10
2018-07-20T03:04:26.098Z,5.20
2018-07-20T03:05:26.054Z,6.00
2018-07-20T03:06:26.018Z,5.10
2018-07-20T03:07:25.972Z,5.40
2018-07-20T03:08:25.929Z,5.30
2018-07-20T03:09:25.883Z,5.80
2018-07-20T03:10:25.851Z,5.70
2018-07-20T03:11:25.804Z,5.60
2018-07-20T03:12:25.762Z,5.30
2018-07-20T03:13:25.718Z,5.30
2018-07-20T03:14:25.676Z,5.20
2018-07-20T03:15:25.632Z,7.90
2018-07-20T03:16:25.592Z,4.90
2018-07-20T03:17:25.545Z,5.30
2018-07-20T03:18:25.505Z,7.80
2018-07-20T03:19:25.461Z,5.80
2018-07-20T03:20:25.419Z,5.30
2018-07-20T03:21:25.376Z,6.00
2018-07-20T03:22:25.340Z,6.10
2018-07-20T03:23:25.297Z,6.20
2018-07-20T03:24:25.249Z,5.60
2018-07-20T03:25:25.210Z,5.70
2018-07-20T03:26:25.163Z,5.90
2018-07-20T03:27:25.124Z,6.20
2018-07-20T03:28:25.085Z,5.50
2018-07-20T03:29:25.036Z,5.50
2018-07-20T03:30:24.996Z,5.30
2018-07-20T03:31:24.953Z,6.40
2018-07-20T03:32:24.912Z,5.70
2018-07-20T03:33:24.871Z,5.30
2018-07-20T03:34:24.828Z,5.90
2018-07-20T03:35:24.782Z,5.90
2018-07-20T03:36:24.745Z,5.10
2018-07-20T03:37:24.695Z,5.70
2018-07-20T03:38:24.654Z,5.30
2018-07-20T03:39:24.617Z,6.00
2018-07-20T03:40:24.570Z,8.50
2018-07-20T03:41:24.527Z,5.60
2018-07-20T03:42:24.488Z,5.50
2018-07-20T03:43:24.440Z,6.90
2018-07-20T03:44:24.404Z,5.90
2018-07-20T03:45:24.356Z,5.80
2018-07-20T03:46:24.314Z,6.70
2018-07-20T03:47:24.269Z,5.90
2018-07-20T03:48:24.231Z,6.20
2018-07-20T03:49:24.187Z,5.90
2018-07-20T03:50:24.148Z,7.90
2018-07-20T03:51:24.101Z,5.90
2018-07-20T03:52:24.063Z,6.10
2018-07-20T03:53:24.018Z,6.10
2018-07-20T03:54:23.976Z,5.80
2018-07-20T03:55:23.944Z,6.30
2018-07-20T03:56:23.886Z,5.90
2018-07-20T03:57:23.852Z,5.90
2018-07-20T03:58:23.806Z,9.80
2018-07-20T03:59:23.765Z,6.20
2018-07-20T04:00:23.719Z,6.30
2018-07-20T04:01:23.672Z,7.20
2018-07-20T04:02:23.660Z,6.00
2018-07-20T04:03:23.591Z,6.40
2018-07-20T04:04:23.548Z,6.10
2018-07-20T04:05:23.503Z,7.10
2018-07-20T04:06:23.462Z,7.80
2018-07-20T04:07:23.419Z,6.30
2018-07-20T04:08:23.377Z,5.80
2018-07-20T04:09:23.347Z,6.40
2018-07-20T04:10:23.385Z,7.60
2018-07-20T04:11:23.248Z,6.50
2018-07-20T04:12:23.269Z,6.80
2018-07-20T04:13:23.168Z,6.60
2018-07-20T04:14:23.123Z,7.40
2018-07-20T04:15:23.087Z,7.70
2018-07-20T04:16:23.038Z,6.30
2018-07-20T04:17:22.994Z,8.80
2018-07-20T04:18:22.956Z,7.10
2018-07-20T04:19:22.906Z,6.60
2018-07-20T04:20:22.865Z,9.20
2018-07-20T04:21:22.820Z,8.60
2018-07-20T04:22:22.779Z,6.50
2018-07-20T04:23:22.737Z,8.50
2018-07-20T04:24:22.701Z,6.40
2018-07-20T04:25:22.654Z,7.30
2018-07-20T04:26:22.618Z,6.50
2018-07-20T04:27:22.574Z,6.60
2018-07-20T04:28:22.527Z,7.40
2018-07-20T04:29:22.479Z,6.80
2018-07-20T04:30:22.437Z,7.40
2018-07-20T04:31:22.396Z,6.90
2018-07-20T04:32:22.354Z,6.80
2018-07-20T04:33:22.316Z,9.00
2018-07-20T04:34:22.276Z,7.80
2018-07-20T04:35:22.226Z,7.50
2018-07-20T04:36:22.218Z,8.80
2018-07-20T04:37:22.142Z,7.00
2018-07-20T04:38:22.096Z,7.40
2018-07-20T04:39:22.055Z,6.90
2018-07-20T04:40:22.017Z,7.70
2018-07-20T04:41:21.969Z,7.50
2018-07-20T04:42:21.929Z,7.70
2018-07-20T04:43:21.891Z,8.30
2018-07-20T04:44:21.841Z,7.30
2018-07-20T04:45:21.804Z,7.70
2018-07-20T04:46:21.755Z,9.50
2018-07-20T04:47:21.716Z,11.30
2018-07-20T04:48:21.671Z,7.00
2018-07-20T04:49:21.636Z,9.00
2018-07-20T04:50:21.586Z,7.10
2018-07-20T04:51:21.551Z,14.50
2018-07-20T04:52:21.502Z,8.80
2018-07-20T04:53:21.459Z,11.40
2018-07-20T04:54:21.421Z,8.50
2018-07-20T04:55:21.378Z,6.40
2018-07-20T04:56:21.334Z,6.70
2018-07-20T04:57:21.301Z,6.30
2018-07-20T04:58:21.261Z,7.20
2018-07-20T04:59:21.206Z,6.50
2018-07-20T05:00:21.173Z,6.70
2018-07-20T05:01:21.123Z,6.40
2018-07-20T05:02:21.082Z,6.60
2018-07-20T05:03:21.033Z,6.70
2018-07-20T05:04:20.992Z,6.40
2018-07-20T05:05:20.948Z,8.70
2018-07-20T05:06:20.911Z,6.90
2018-07-20T05:07:20.867Z,9.10
2018-07-20T05:08:20.988Z,6.60
2018-07-20T05:09:20.780Z,7.10
2018-07-20T05:10:20.741Z,9.80
2018-07-20T05:11:20.706Z,7.90
2018-07-20T05:12:20.655Z,9.60
2018-07-20T05:13:20.609Z,9.40
2018-07-20T05:14:20.581Z,7.30
2018-07-20T05:15:20.528Z,9.80
2018-07-20T05:16:20.484Z,7.20
2018-07-20T05:17:20.458Z,8.70
2018-07-20T05:18:20.403Z,7.70
2018-07-20T05:19:20.356Z,8.10
2018-07-20T05:20:20.314Z,9.00
2018-07-20T05:21:20.277Z,7.30
2018-07-20T05:22:20.233Z,7.90
2018-07-20T05:23:20.187Z,7.20
2018-07-20T05:24:20.146Z,8.80
2018-07-20T05:25:20.104Z,9.30
2018-07-20T05:26:20.093Z,7.30
2018-07-20T05:27:20.036Z,9.10
2018-07-20T05:28:19.979Z,9.40
2018-07-20T05:29:19.936Z,7.50
2018-07-20T05:30:19.895Z,9.30
2018-07-20T05:31:19.850Z,10.50
2018-07-20T05:32:19.821Z,9.50
2018-07-20T05:33:19.767Z,8.90
2018-07-20T05:34:19.725Z,9.30
2018-07-20T05:35:19.688Z,7.60
2018-07-20T05:36:19.646Z,8.20
2018-07-20T05:37:19.653Z,9.60
2018-07-20T05:38:19.557Z,8.90
2018-07-20T05:39:19.516Z,7.50
2018-07-20T05:40:19.472Z,8.60
2018-07-20T05:41:19.431Z,8.20
2018-07-20T05:42:19.388Z,8.50
2018-07-20T05:43:19.349Z,10.20
2018-07-20T05:44:19.306Z,9.90
2018-07-20T05:45:19.262Z,11.10
2018-07-20T05:46:19.236Z,11.20
2018-07-20T05:47:19.180Z,10.60
2018-07-20T05:48:19.138Z,9.90
2018-07-20T05:49:19.098Z,10.10
2018-07-20T05:50:19.054Z,9.00
2018-07-20T05:51:19.012Z,8.90
2018-07-20T05:52:18.976Z,11.80
2018-07-20T05:53:18.964Z,8.10
2018-07-20T05:54:18.892Z,10.00
2018-07-20T05:55:18.844Z,11.10
2018-07-20T05:56:18.830Z,11.00
2018-07-20T05:57:18.768Z,9.40
2018-07-20T05:58:18.720Z,9.80
2018-07-20T05:59:18.678Z,9.30
2018-07-20T06:00:18.638Z,9.10
2018-07-20T06:01:18.606Z,12.50
2018-07-20T06:02:18.554Z,9.40
2018-07-20T06:03:18.535Z,9.10
2018-07-20T06:04:18.478Z,13.70
2018-07-20T06:05:18.440Z,9.50
2018-07-20T06:06:18.387Z,12.10
2018-07-20T06:07:18.347Z,10.30
2018-07-20T06:08:18.307Z,10.90
2018-07-20T06:09:18.266Z,9.80
2018-07-20T06:10:18.222Z,12.00
2018-07-20T06:11:18.183Z,11.90
2018-07-20T06:12:18.141Z,13.20
2018-07-20T06:13:18.104Z,10.60
2018-07-20T06:14:18.183Z,11.90
2018-07-20T06:15:18.020Z,11.50
2018-07-20T06:16:17.980Z,17.30
2018-07-20T06:17:18.051Z,12.20
2018-07-20T06:18:18.369Z,13.10
2018-07-20T06:19:17.852Z,12.80
2018-07-20T06:20:17.810Z,15.00
2018-07-20T06:21:17.769Z,12.60
2018-07-20T06:22:17.738Z,13.40
2018-07-20T06:23:17.689Z,12.00
2018-07-20T06:24:17.648Z,11.50
2018-07-20T06:25:17.608Z,11.00
2018-07-20T06:26:17.563Z,11.20
2018-07-20T06:27:17.530Z,11.40
2018-07-20T06:28:17.486Z,13.00
2018-07-20T06:29:17.439Z,12.40
2018-07-20T06:30:17.399Z,11.60
2018-07-20T06:31:17.361Z,11.30
2018-07-20T06:32:17.318Z,10.30
2018-07-20T06:33:17.285Z,11.70
2018-07-20T06:34:17.237Z,11.10
2018-07-20T06:35:17.196Z,11.40
2018-07-20T06:36:17.155Z,10.10
2018-07-20T06:37:17.115Z,11.90
2018-07-20T06:38:17.077Z,10.80
2018-07-20T06:39:17.033Z,10.40
2018-07-20T06:40:16.992Z,12.20
2018-07-20T06:41:16.954Z,11.50
2018-07-20T06:42:16.916Z,12.30
2018-07-20T06:43:16.873Z,14.60
2018-07-20T06:44:16.839Z,13.20
2018-07-20T06:45:16.794Z,11.60
2018-07-20T06:46:16.747Z,13.00
2018-07-20T06:47:16.711Z,13.90
2018-07-20T06:48:16.674Z,14.50
2018-07-20T06:49:16.633Z,10.90
2018-07-20T06:50:16.587Z,11.20
2018-07-20T06:51:16.549Z,9.40
2018-07-20T06:52:16.513Z,11.30
2018-07-20T06:53:16.471Z,9.20
2018-07-20T06:54:16.423Z,6.60
2018-07-20T06:55:16.384Z,7.80
2018-07-20T06:56:16.352Z,8.20
2018-07-20T06:57:16.306Z,9.00
2018-07-20T06:58:16.268Z,8.30
2018-07-20T06:59:16.229Z,8.20
2018-07-20T07:00:16.185Z,9.20
2018-07-20T07:01:16.150Z,8.10
2018-07-20T07:02:16.104Z,7.20
2018-07-20T07:45:14.394Z,9.20
2018-07-20T07:46:14.354Z,8.30
2018-07-20T07:47:14.318Z,13.70
2018-07-20T07:48:14.278Z,14.60
2018-07-20T07:49:14.254Z,10.80
2018-07-20T07:50:14.200Z,10.60
2018-07-20T07:51:14.159Z,9.50
2018-07-20T07:52:14.121Z,8.00
2018-07-20T07:53:14.081Z,8.70
2018-07-20T07:54:14.044Z,9.70
2018-07-20T07:55:14.007Z,9.10
2018-07-20T07:56:13.965Z,8.90
2018-07-20T07:57:13.953Z,12.50
2018-07-20T07:58:13.932Z,10.90
2018-07-20T07:59:13.849Z,11.90
2018-07-20T08:00:13.810Z,12.70
2018-07-20T08:01:13.769Z,11.00
2018-07-20T08:02:13.734Z,12.00
2018-07-20T08:03:13.734Z,11.70
2018-07-20T08:04:13.654Z,10.80
2018-07-20T08:05:13.618Z,14.10
2018-07-20T08:06:13.577Z,8.90
2018-07-20T08:07:13.540Z,10.80
2018-07-20T08:08:13.549Z,8.90
2018-07-20T08:09:13.459Z,10.70
2018-07-20T08:10:13.456Z,9.90
2018-07-20T08:11:13.384Z,9.60
2018-07-20T08:12:13.346Z,10.80
2018-07-20T08:13:13.309Z,9.80
2018-07-20T08:14:13.269Z,11.60
2018-07-20T08:15:13.231Z,9.40
2018-07-20T08:16:13.192Z,10.60
2018-07-20T08:17:13.156Z,11.20
2018-07-20T08:18:13.117Z,9.20
2018-07-20T08:19:13.079Z,13.40
2018-07-20T08:20:13.041Z,11.40
2018-07-20T08:21:13.002Z,9.50
2018-07-20T08:22:12.972Z,11.10
2018-07-20T08:23:12.933Z,8.80
2018-07-20T08:24:12.888Z,11.80
2018-07-20T08:25:12.853Z,9.80
2018-07-20T08:26:12.812Z,8.70
2018-07-20T08:27:12.774Z,13.40
2018-07-20T08:28:12.738Z,10.50
2018-07-20T08:29:12.699Z,9.10
2018-07-20T08:30:12.662Z,12.20
2018-07-20T08:31:12.625Z,13.70
2018-07-20T08:32:12.589Z,18.80
2018-07-20T08:33:12.550Z,14.90
2018-07-20T08:34:12.513Z,17.80
2018-07-20T08:35:12.478Z,14.80
2018-07-20T08:36:12.437Z,14.30
2018-07-20T08:37:12.400Z,15.20
2018-07-20T08:38:12.367Z,14.90
2018-07-20T08:39:12.325Z,18.90
2018-07-20T08:40:12.292Z,17.10
2018-07-20T08:41:12.260Z,16.80
2018-07-20T08:42:12.214Z,15.70
2018-07-20T08:43:12.178Z,17.70
2018-07-20T08:44:12.141Z,16.00
2018-07-20T08:45:12.104Z,17.30
2018-07-20T08:46:12.070Z,16.40
2018-07-20T08:47:12.030Z,13.80
2018-07-20T08:48:11.995Z,13.50
2018-07-20T08:49:11.957Z,17.30
2018-07-20T08:50:11.923Z,15.30
2018-07-20T08:51:11.885Z,12.90
2018-07-20T08:52:11.850Z,13.60
2018-07-20T08:53:11.822Z,13.00
2018-07-20T08:54:11.856Z,13.60
2018-07-20T08:55:11.745Z,13.00
2018-07-20T08:56:11.703Z,16.60
2018-07-20T08:57:11.664Z,16.10
2018-07-20T08:58:11.629Z,15.10
2018-07-20T08:59:11.593Z,13.70
2018-07-20T09:00:11.558Z,17.80
2018-07-20T09:01:11.519Z,16.30
2018-07-20T09:02:11.484Z,13.20
2018-07-20T09:03:11.446Z,13.40
2018-07-20T09:04:11.415Z,12.70
2018-07-20T09:05:11.380Z,14.50
2018-07-20T09:06:11.338Z,15.10
2018-07-20T09:07:11.301Z,9.90
2018-07-20T09:08:11.268Z,15.40
2018-07-20T09:09:11.229Z,12.30
2018-07-20T09:10:11.195Z,11.30
2018-07-20T09:11:11.157Z,9.60
2018-07-20T09:12:11.122Z,9.90
2018-07-20T09:13:11.088Z,11.20
2018-07-20T09:14:11.051Z,13.20
2018-07-20T09:15:11.015Z,13.50
2018-07-20T09:16:10.978Z,13.40
2018-07-20T09:17:10.947Z,11.00
2018-07-20T09:18:10.912Z,10.20
2018-07-20T09:19:10.875Z,9.50
2018-07-20T09:20:10.837Z,10.50
2018-07-20T09:21:10.806Z,8.80
2018-07-20T09:22:10.765Z,12.60
2018-07-20T09:23:10.730Z,12.40
2018-07-20T09:24:10.696Z,9.50
2018-07-20T09:25:10.658Z,9.90
2018-07-20T09:26:10.622Z,13.40
2018-07-20T09:27:10.587Z,10.20
2018-07-20T09:28:10.597Z,9.10
2018-07-20T09:29:10.519Z,9.90
2018-07-20T09:30:10.481Z,10.60
2018-07-20T09:31:10.446Z,10.40
2018-07-20T09:32:10.411Z,10.50
2018-07-20T09:33:10.374Z,9.80
2018-07-20T09:34:10.471Z,8.60
2018-07-20T09:35:10.314Z,9.90
2018-07-20T09:36:10.279Z,11.70
2018-07-20T09:37:10.232Z,10.70
2018-07-20T09:38:10.197Z,10.90
2018-07-20T09:39:10.169Z,15.60
2018-07-20T09:40:10.129Z,21.00
2018-07-20T09:41:10.092Z,18.10
2018-07-20T09:42:10.058Z,20.80
2018-07-20T09:43:10.024Z,10.70
2018-07-20T09:44:09.987Z,18.40
2018-07-20T09:45:09.952Z,16.90
2018-07-20T09:46:09.918Z,15.80
2018-07-20T09:47:09.881Z,14.30
2018-07-20T09:48:09.849Z,10.10
2018-07-20T09:49:09.812Z,12.60
2018-07-20T09:50:09.778Z,11.60
2018-07-20T09:51:09.742Z,11.40
2018-07-20T09:52:09.736Z,9.10
2018-07-20T09:53:09.672Z,9.40
2018-07-20T09:54:09.636Z,10.90
2018-07-20T09:55:09.603Z,10.60
2018-07-20T09:56:09.567Z,10.10
2018-07-20T09:57:09.531Z,9.10
2018-07-20T09:58:09.496Z,9.20
2018-07-20T09:59:09.461Z,10.40
2018-07-20T10:00:09.427Z,9.80
2018-07-20T10:01:09.395Z,10.00
2018-07-20T10:02:09.359Z,12.10
2018-07-20T10:03:09.324Z,10.50
2018-07-20T10:04:09.290Z,12.70
2018-07-20T10:05:09.253Z,11.40
2018-07-20T10:06:09.218Z,10.50
2018-07-20T10:07:09.186Z,16.20
2018-07-20T10:08:09.150Z,13.80
2018-07-20T10:09:09.114Z,12.30
2018-07-20T10:10:09.081Z,13.40
2018-07-20T10:11:09.050Z,12.50
2018-07-20T10:12:09.015Z,10.60
2018-07-20T10:13:08.977Z,11.00
2018-07-20T10:14:08.943Z,10.10
2018-07-20T10:15:08.908Z,9.60
2018-07-20T10:16:08.874Z,9.60
2018-07-20T10:17:08.842Z,13.30
2018-07-20T10:18:08.805Z,10.70
2018-07-20T10:19:08.798Z,10.30
2018-07-20T10:20:08.735Z,8.90
2018-07-20T10:21:08.706Z,9.30
2018-07-20T10:22:08.668Z,11.80
2018-07-20T10:23:08.631Z,9.00
2018-07-20T10:24:08.598Z,9.50
2018-07-20T10:25:08.565Z,11.50
2018-07-20T10:26:08.529Z,14.80
2018-07-20T10:27:48.454Z,8.30
2018-07-20T10:28:48.421Z,9.80
2018-07-20T10:29:48.383Z,9.80
2018-07-20T10:30:48.349Z,8.70
2018-07-20T10:31:48.315Z,7.60
2018-07-20T10:32:48.282Z,12.60
2018-07-20T10:33:48.247Z,10.50
2018-07-20T10:34:48.211Z,8.80
2018-07-20T10:35:48.177Z,9.70
2018-07-20T10:36:48.141Z,8.40
2018-07-20T10:37:48.110Z,7.00
2018-07-20T10:38:48.074Z,7.80
2018-07-20T10:39:48.037Z,10.50
2018-07-20T10:40:48.004Z,8.20
2018-07-20T10:41:47.972Z,10.20
2018-07-20T10:42:47.936Z,7.90
2018-07-20T10:43:47.901Z,10.00
2018-07-20T10:44:47.868Z,9.70
2018-07-20T10:45:47.833Z,13.80
2018-07-20T10:46:47.801Z,9.20
2018-07-20T10:47:47.762Z,8.50
2018-07-20T10:48:47.729Z,10.30
2018-07-20T10:49:47.695Z,8.20
2018-07-20T10:50:47.662Z,8.50
2018-07-20T10:51:47.624Z,7.70
2018-07-20T10:52:47.593Z,8.60
2018-07-20T10:53:47.556Z,6.80
2018-07-20T10:54:47.523Z,6.80
2018-07-20T10:55:47.488Z,8.50
2018-07-20T10:56:47.455Z,9.50
2018-07-20T10:57:47.421Z,11.60
2018-07-20T10:58:47.388Z,7.10
2018-07-20T10:59:47.362Z,8.60
2018-07-20T11:00:47.316Z,7.80
2018-07-20T11:01:47.281Z,9.20
2018-07-20T11:02:47.248Z,6.60
2018-07-20T11:03:47.212Z,6.90
2018-07-20T11:04:47.180Z,8.50
2018-07-20T11:05:47.144Z,8.10
2018-07-20T11:06:47.111Z,11.80
2018-07-20T11:07:47.074Z,7.70
2018-07-20T11:08:47.042Z,7.10
2018-07-20T11:09:47.009Z,7.80
2018-07-20T11:10:46.974Z,9.00
2018-07-20T11:11:46.941Z,9.20
2018-07-20T11:12:46.903Z,6.60
2018-07-20T11:13:46.918Z,8.60
2018-07-20T11:14:46.838Z,9.70
2018-07-20T11:15:46.803Z,9.20
2018-07-20T11:16:46.768Z,8.70
2018-07-20T11:17:46.734Z,7.50
2018-07-20T11:18:46.700Z,8.10
2018-07-20T11:19:46.666Z,8.90
2018-07-20T11:20:46.636Z,8.00
2018-07-20T11:21:46.601Z,10.50
2018-07-20T11:22:46.565Z,9.40
2018-07-20T11:23:46.529Z,7.50
2018-07-20T11:24:46.497Z,7.20
2018-07-20T11:25:46.464Z,9.80
2018-07-20T11:26:46.430Z,7.00
2018-07-20T11:27:46.396Z,6.50
2018-07-20T11:28:46.361Z,6.50
2018-07-20T11:29:46.328Z,7.00
2018-07-20T11:30:46.293Z,9.00
2018-07-20T11:31:46.258Z,10.80
2018-07-20T11:32:46.225Z,7.10
2018-07-20T11:33:46.195Z,8.00
2018-07-20T11:34:46.178Z,7.90
2018-07-20T11:35:46.127Z,11.70
2018-07-20T11:36:46.095Z,9.70
2018-07-20T11:37:46.058Z,8.00
2018-07-20T11:38:46.028Z,9.80
2018-07-20T11:39:45.991Z,11.20
2018-07-20T11:40:45.957Z,7.00
2018-07-20T11:41:45.926Z,8.30
2018-07-20T11:42:45.891Z,7.70
2018-07-20T11:43:45.860Z,5.70
2018-07-20T11:44:45.824Z,8.20
2018-07-20T11:45:45.794Z,6.20
2018-07-20T11:46:45.761Z,6.20
2018-07-20T11:47:45.723Z,7.90
2018-07-20T11:48:45.692Z,7.80
2018-07-20T11:49:45.660Z,10.50
2018-07-20T11:50:45.627Z,12.10
2018-07-20T11:51:45.594Z,9.30
2018-07-20T11:52:45.557Z,7.90
2018-07-20T11:53:45.526Z,9.40
2018-07-20T11:54:45.496Z,6.90
2018-07-20T11:55:45.460Z,7.80
2018-07-20T11:56:45.424Z,7.60
2018-07-20T11:57:45.395Z,6.80
2018-07-20T11:58:45.362Z,7.90
2018-07-20T11:59:45.325Z,9.50
2018-07-20T12:00:45.292Z,11.70
2018-07-20T12:01:45.278Z,11.40
2018-07-20T12:02:45.225Z,7.60
2018-07-20T12:03:45.190Z,7.10
2018-07-20T12:04:45.164Z,9.40
2018-07-20T12:05:45.127Z,7.60
2018-07-20T12:06:45.098Z,8.40
2018-07-20T12:07:45.057Z,7.30
2018-07-20T12:08:45.026Z,7.90
2018-07-20T12:09:44.990Z,9.60
2018-07-20T12:10:44.957Z,8.80
2018-07-20T12:11:44.923Z,6.90
2018-07-20T12:12:44.889Z,8.80
2018-07-20T12:13:44.862Z,11.80
2018-07-20T12:14:44.826Z,10.40
2018-07-20T12:15:44.792Z,10.70
2018-07-20T12:17:44.728Z,6.30
2018-07-20T12:18:44.694Z,8.10
2018-07-20T12:19:44.656Z,9.90
2018-07-20T12:20:44.627Z,8.30
2018-07-20T12:21:44.602Z,7.60
2018-07-20T12:22:44.559Z,9.50
2018-07-20T12:23:44.528Z,9.80
2018-07-20T12:24:44.493Z,9.70
2018-07-20T12:25:44.461Z,6.10
2018-07-20T12:26:44.428Z,8.70
2018-07-20T12:27:44.393Z,8.50
2018-07-20T12:28:44.360Z,8.40
2018-07-20T12:29:44.333Z,10.70
2018-07-20T12:30:44.298Z,9.00
2018-07-20T12:31:44.264Z,7.70
2018-07-20T12:32:44.232Z,9.20
2018-07-20T12:33:44.204Z,9.10
2018-07-20T12:34:44.168Z,6.70
2018-07-20T12:35:44.136Z,8.20
2018-07-20T12:36:44.102Z,8.40
2018-07-20T12:37:44.070Z,9.20
2018-07-20T12:38:44.040Z,7.30
2018-07-20T12:39:44.013Z,7.30
2018-07-20T12:40:43.976Z,6.70
2018-07-20T12:41:43.945Z,8.40
2018-07-20T12:42:43.917Z,8.40
2018-07-20T12:43:43.883Z,8.80
2018-07-20T12:44:43.846Z,11.00
2018-07-20T12:45:43.816Z,8.40
2018-07-20T12:46:43.836Z,7.50
2018-07-20T12:47:43.756Z,9.20
2018-07-20T12:48:43.720Z,7.30
2018-07-20T12:49:43.688Z,7.70
2018-07-20T12:50:43.689Z,6.00
2018-07-20T12:51:43.616Z,5.60
2018-07-20T12:52:43.590Z,9.30
2018-07-20T12:53:43.556Z,7.00
2018-07-20T12:54:43.523Z,6.50
2018-07-20T12:55:43.489Z,8.10
2018-07-20T12:56:43.456Z,6.70
2018-07-20T12:57:43.425Z,11.70
2018-07-20T12:58:43.487Z,8.30
2018-07-20T12:59:43.358Z,7.60
2018-07-20T13:00:43.330Z,6.30
2018-07-20T13:01:43.291Z,9.60
2018-07-20T13:02:43.260Z,10.20
2018-07-20T13:03:43.226Z,7.10
2018-07-20T13:04:43.192Z,9.30
2018-07-20T13:05:43.163Z,9.60
2018-07-20T13:06:43.125Z,5.90
2018-07-20T13:07:43.092Z,9.40
2018-07-20T13:08:43.059Z,12.60
2018-07-20T13:09:43.034Z,23.10
2018-07-20T13:10:42.994Z,16.00
2018-07-20T13:11:42.993Z,7.30
2018-07-20T13:12:42.929Z,7.80
2018-07-20T13:13:42.899Z,7.30
2018-07-20T13:14:42.862Z,7.30
2018-07-20T13:15:42.831Z,8.40
2018-07-20T13:16:42.797Z,7.00
2018-07-20T13:17:42.765Z,9.20
2018-07-20T13:18:42.726Z,6.40
2018-07-20T13:19:42.694Z,8.10
2018-07-20T13:20:42.662Z,7.00
2018-07-20T13:21:42.628Z,7.70
2018-07-20T13:22:42.593Z,6.70
2018-07-20T13:23:42.580Z,8.00
2018-07-20T13:24:42.523Z,7.20
2018-07-20T13:25:42.563Z,7.50
2018-07-20T13:26:42.461Z,7.80
2018-07-20T13:27:42.424Z,8.30
2018-07-20T13:28:42.398Z,7.10
2018-07-20T13:29:42.359Z,6.10
2018-07-20T13:30:42.324Z,7.60
2018-07-20T13:31:42.288Z,8.70
2018-07-20T13:32:42.257Z,8.40
2018-07-20T13:33:42.229Z,6.20
2018-07-20T13:34:42.191Z,7.60
2018-07-20T13:35:42.154Z,14.30
2018-07-20T13:36:42.123Z,7.50
2018-07-20T13:37:42.090Z,6.80
2018-07-20T13:38:42.058Z,8.30
2018-07-20T13:39:42.022Z,7.30
2018-07-20T13:40:41.991Z,5.90
2018-07-20T13:41:41.953Z,7.00
2018-07-20T13:44:41.854Z,6.20
2018-07-20T13:45:41.820Z,7.80
2018-07-20T13:46:41.786Z,5.80
2018-07-20T13:48:41.717Z,5.70
2018-07-20T13:49:41.683Z,5.90
2018-07-20T13:50:41.651Z,7.00
2018-07-20T13:51:41.614Z,5.80
2018-07-20T13:52:41.675Z,6.80
2018-07-20T13:53:41.548Z,14.00
2018-07-20T13:54:41.515Z,6.50
2018-07-20T13:55:41.490Z,7.00
2018-07-20T13:56:41.445Z,6.20
2018-07-20T13:57:41.414Z,6.20